Time;durP1;ratioP1;P1;durP2;ratioP2;P2;SDS_P1;SDS_P2;PMS_P1;PMS_P2;Temp;Humidity;BMP_temperature;BMP_pressure;BME280_temperature;BME280_humidity;BME280_pressure;Samples;Min_cycle;Max_cycle;Signal;HPM_P1;HPM_P2
2023/06/08 00:00:41;;;;;;;20.47;12.27;;;;;;;;;;5083843;28;20478;-82
2023/06/08 00:03:09;;;;;;;23.90;11.90;;;;;;;;;;5085060;28;20450;-81
2023/06/08 00:05:43;;;;;;;21.40;11.43;;;;;;;;;;5078699;28;20482;-81
2023/06/08 00:08:11;;;;;;;20.00;10.67;;;;;;;;;;5078728;28;20509;-82
2023/06/08 00:10:38;;;;;;;18.87;11.37;;;;;;;;;;5076858;28;20464;-81
2023/06/08 00:13:04;;;;;;;20.67;11.43;;;;;;;;;;5087335;28;20438;-81
2023/06/08 00:15:32;;;;;;;19.73;10.07;;;;;;;;;;5080211;28;20470;-81
2023/06/08 00:18:00;;;;;;;21.30;9.50;;;;;;;;;;5084073;28;20498;-81
2023/06/08 00:20:27;;;;;;;18.87;10.50;;;;;;;;;;5086248;28;20478;-81
2023/06/08 00:22:53;;;;;;;19.83;11.00;;;;;;;;;;5074734;28;20466;-81
2023/06/08 00:25:22;;;;;;;27.00;11.20;;;;;;;;;;5073412;28;20470;-81
2023/06/08 00:27:49;;;;;;;20.77;10.90;;;;;;;;;;5077419;28;20489;-81
2023/06/08 00:30:15;;;;;;;23.03;11.93;;;;;;;;;;5079663;28;20549;-81
2023/06/08 00:32:42;;;;;;;17.70;12.20;;;;;;;;;;5088018;28;20481;-81
2023/06/08 00:35:10;;;;;;;22.50;11.57;;;;;;;;;;5078856;28;20463;-81
2023/06/08 00:37:37;;;;;;;25.30;11.63;;;;;;;;;;5077994;28;20467;-81
2023/06/08 00:40:04;;;;;;;20.03;12.13;;;;;;;;;;5079975;28;21006;-80
2023/06/08 00:42:30;;;;;;;22.00;11.60;;;;;;;;;;5074694;28;20462;-80
2023/06/08 00:44:56;;;;;;;29.53;12.67;;;;;;;;;;5076556;28;20478;-80
2023/06/08 00:47:23;;;;;;;25.53;13.07;;;;;;;;;;5073990;28;20486;-81
2023/06/08 00:49:50;;;;;;;24.63;12.30;;;;;;;;;;5075681;28;20498;-81
2023/06/08 00:52:20;;;;;;;27.13;13.20;;;;;;;;;;5077123;28;20956;-80
2023/06/08 00:54:48;;;;;;;26.07;13.67;;;;;;;;;;5076970;28;20498;-81
2023/06/08 00:57:18;;;;;;;21.33;12.80;;;;;;;;;;5072982;28;20489;-81
2023/06/08 00:59:49;;;;;;;18.90;12.63;;;;;;;;;;5074814;28;20478;-81
2023/06/08 01:02:15;;;;;;;20.97;11.83;;;;;;;;;;5081053;28;20466;-81
2023/06/08 01:04:41;;;;;;;22.07;12.37;;;;;;;;;;5079206;28;20469;-81
2023/06/08 01:07:14;;;;;;;21.67;12.70;;;;;;;;;;5086845;28;20467;-81
2023/06/08 01:09:45;;;;;;;25.43;12.20;;;;;;;;;;5090224;28;20461;-81
2023/06/08 01:12:16;;;;;;;18.80;11.70;;;;;;;;;;5079064;28;20437;-80
2023/06/08 01:14:46;;;;;;;21.80;12.33;;;;;;;;;;5084247;28;21022;-81
2023/06/08 01:17:17;;;;;;;20.80;12.67;;;;;;;;;;5076639;28;20489;-81
2023/06/08 01:19:57;;;;;;;20.77;12.67;;;;;;;;;;5072260;28;20471;-81
2023/06/08 01:22:28;;;;;;;28.73;12.83;;;;;;;;;;5084661;28;20445;-81
2023/06/08 01:24:56;;;;;;;22.83;12.30;;;;;;;;;;5075402;28;21011;-80
2023/06/08 01:27:25;;;;;;;17.83;11.93;;;;;;;;;;5080547;28;20470;-81
2023/06/08 01:29:51;;;;;;;18.10;12.70;;;;;;;;;;5075220;28;20463;-82
2023/06/08 01:32:18;;;;;;;22.70;12.07;;;;;;;;;;5085658;28;20478;-81
2023/06/08 01:34:45;;;;;;;18.07;12.33;;;;;;;;;;5079622;28;20501;-80
2023/06/08 01:37:17;;;;;;;26.10;12.57;;;;;;;;;;5084683;28;21014;-81
2023/06/08 01:39:46;;;;;;;21.53;13.03;;;;;;;;;;5079802;28;20484;-81
2023/06/08 01:42:16;;;;;;;22.90;12.93;;;;;;;;;;5072059;28;20937;-81
2023/06/08 01:44:48;;;;;;;22.07;12.37;;;;;;;;;;5080152;28;20474;-81
2023/06/08 01:47:16;;;;;;;20.33;12.60;;;;;;;;;;5085385;28;20461;-81
2023/06/08 01:49:42;;;;;;;23.33;12.67;;;;;;;;;;5083485;28;20461;-81
2023/06/08 01:52:09;;;;;;;26.50;12.93;;;;;;;;;;5079099;28;20453;-81
2023/06/08 01:54:36;;;;;;;20.40;13.30;;;;;;;;;;5079114;28;20492;-82
2023/06/08 01:57:03;;;;;;;28.40;10.97;;;;;;;;;;5088463;28;20473;-80
2023/06/08 01:59:32;;;;;;;17.20;11.53;;;;;;;;;;5087576;28;20467;-81
2023/06/08 02:01:58;;;;;;;23.00;11.43;;;;;;;;;;5077185;28;20453;-80
2023/06/08 02:04:25;;;;;;;25.63;11.17;;;;;;;;;;5082591;28;20470;-82
2023/06/08 02:06:51;;;;;;;23.37;11.80;;;;;;;;;;5079476;28;20787;-80
2023/06/08 02:09:18;;;;;;;24.63;12.23;;;;;;;;;;5083680;28;20474;-81
2023/06/08 02:11:44;;;;;;;26.17;13.07;;;;;;;;;;5086701;28;20931;-81
2023/06/08 02:14:11;;;;;;;21.67;12.07;;;;;;;;;;5081949;28;20462;-82
2023/06/08 02:16:38;;;;;;;19.70;12.43;;;;;;;;;;5083570;28;20439;-81
2023/06/08 02:19:05;;;;;;;20.80;11.47;;;;;;;;;;5089790;28;20469;-81
2023/06/08 02:21:32;;;;;;;22.30;12.70;;;;;;;;;;5080639;28;20478;-81
2023/06/08 02:23:59;;;;;;;24.67;11.87;;;;;;;;;;5081851;28;20473;-81
2023/06/08 02:26:25;;;;;;;20.03;12.40;;;;;;;;;;5084087;28;20446;-82
2023/06/08 02:28:51;;;;;;;26.10;13.20;;;;;;;;;;5081824;28;20458;-82
2023/06/08 02:31:18;;;;;;;20.00;12.73;;;;;;;;;;5084235;28;20459;-81
2023/06/08 02:33:46;;;;;;;25.70;12.90;;;;;;;;;;5087087;28;20453;-81
2023/06/08 02:36:12;;;;;;;24.23;12.70;;;;;;;;;;5083937;28;20845;-81
2023/06/08 02:38:39;;;;;;;27.60;14.10;;;;;;;;;;5082969;28;20474;-81
2023/06/08 02:41:06;;;;;;;24.07;12.70;;;;;;;;;;5082808;28;20570;-81
2023/06/08 02:43:33;;;;;;;20.20;12.40;;;;;;;;;;5082736;28;20451;-81
2023/06/08 02:45:59;;;;;;;15.47;11.93;;;;;;;;;;5083181;28;20553;-81
2023/06/08 02:48:25;;;;;;;28.27;14.10;;;;;;;;;;5077248;28;20473;-80
2023/06/08 02:50:53;;;;;;;23.40;13.40;;;;;;;;;;5083885;28;20474;-81
2023/06/08 02:53:20;;;;;;;24.27;14.43;;;;;;;;;;5077760;28;20453;-81
2023/06/08 02:55:50;;;;;;;23.93;13.90;;;;;;;;;;5077739;28;20470;-80
2023/06/08 02:58:17;;;;;;;19.57;12.93;;;;;;;;;;5079468;28;20462;-81
2023/06/08 03:00:43;;;;;;;27.73;13.90;;;;;;;;;;5076086;28;20560;-81
2023/06/08 03:03:10;;;;;;;24.23;13.60;;;;;;;;;;5083850;28;20487;-81
2023/06/08 03:05:39;;;;;;;28.70;13.67;;;;;;;;;;5079960;28;20470;-81
2023/06/08 03:08:07;;;;;;;24.30;13.30;;;;;;;;;;5078794;28;20473;-81
2023/06/08 03:10:34;;;;;;;24.90;14.03;;;;;;;;;;5077657;28;20470;-81
2023/06/08 03:13:00;;;;;;;32.07;16.57;;;;;;;;;;5093039;28;20438;-81
2023/06/08 03:15:27;;;;;;;20.97;13.97;;;;;;;;;;5071306;28;20479;-80
2023/06/08 03:17:53;;;;;;;24.07;14.70;;;;;;;;;;5077367;28;20463;-81
2023/06/08 03:20:20;;;;;;;22.97;13.53;;;;;;;;;;5079380;28;20474;-81
2023/06/08 03:22:47;;;;;;;34.33;15.70;;;;;;;;;;5088064;28;20434;-81
2023/06/08 03:25:17;;;;;;;23.10;13.93;;;;;;;;;;5091250;28;20480;-81
2023/06/08 03:27:43;;;;;;;20.10;12.93;;;;;;;;;;5080753;28;20475;-81
2023/06/08 03:30:10;;;;;;;30.07;13.50;;;;;;;;;;5080012;28;20500;-81
2023/06/08 03:32:37;;;;;;;18.97;12.03;;;;;;;;;;5085486;28;20442;-81
2023/06/08 03:35:04;;;;;;;26.00;13.90;;;;;;;;;;5082853;28;20502;-81
2023/06/08 03:37:30;;;;;;;24.30;13.80;;;;;;;;;;5078900;28;20525;-81
2023/06/08 03:39:56;;;;;;;20.87;13.57;;;;;;;;;;5085224;28;20471;-80
2023/06/08 03:42:24;;;;;;;21.63;12.87;;;;;;;;;;5078942;28;20460;-81
2023/06/08 03:44:50;;;;;;;27.47;14.37;;;;;;;;;;5076094;28;20474;-81
2023/06/08 03:47:19;;;;;;;20.17;12.40;;;;;;;;;;5077246;28;21081;-81
2023/06/08 03:49:45;;;;;;;29.30;13.27;;;;;;;;;;5083128;28;20888;-80
2023/06/08 03:52:12;;;;;;;32.47;14.13;;;;;;;;;;5080162;28;20449;-80
2023/06/08 03:54:40;;;;;;;21.37;13.63;;;;;;;;;;5073770;28;20498;-81
2023/06/08 03:57:07;;;;;;;29.50;13.13;;;;;;;;;;5078209;28;20851;-81
2023/06/08 03:59:35;;;;;;;20.60;11.13;;;;;;;;;;5081001;28;20479;-81
2023/06/08 04:02:01;;;;;;;47.80;13.50;;;;;;;;;;5082631;28;20539;-81
2023/06/08 04:04:28;;;;;;;26.03;11.73;;;;;;;;;;5078044;28;20485;-81
2023/06/08 04:06:57;;;;;;;18.33;10.80;;;;;;;;;;5082421;28;20945;-81
2023/06/08 04:09:25;;;;;;;24.27;12.67;;;;;;;;;;5075389;28;20469;-81
2023/06/08 04:11:51;;;;;;;20.60;11.60;;;;;;;;;;5076921;28;20459;-81
2023/06/08 04:14:18;;;;;;;25.77;12.20;;;;;;;;;;5077690;28;20467;-81
2023/06/08 04:16:45;;;;;;;24.30;12.53;;;;;;;;;;5082787;28;20454;-81
2023/06/08 04:19:12;;;;;;;22.37;12.20;;;;;;;;;;5077048;28;20463;-81
2023/06/08 04:21:39;;;;;;;17.07;11.53;;;;;;;;;;5083775;28;20486;-80
2023/06/08 04:24:05;;;;;;;25.93;12.10;;;;;;;;;;5077053;28;20512;-79
2023/06/08 04:26:32;;;;;;;22.50;11.80;;;;;;;;;;5073826;28;20453;-81
2023/06/08 04:28:58;;;;;;;25.80;12.30;;;;;;;;;;5078908;28;20485;-81
2023/06/08 04:31:25;;;;;;;23.57;12.00;;;;;;;;;;5074046;28;20968;-79
2023/06/08 04:33:54;;;;;;;22.00;11.90;;;;;;;;;;5079547;28;20865;-81
2023/06/08 04:36:21;;;;;;;25.10;12.40;;;;;;;;;;5076946;28;20457;-81
2023/06/08 04:38:47;;;;;;;27.60;12.70;;;;;;;;;;5076080;28;20512;-81
2023/06/08 04:41:14;;;;;;;20.30;12.20;;;;;;;;;;5079061;28;20505;-81
2023/06/08 04:43:44;;;;;;;26.70;12.87;;;;;;;;;;5081272;28;20459;-81
2023/06/08 04:46:12;;;;;;;24.67;11.10;;;;;;;;;;5079190;28;21022;-82
2023/06/08 04:48:39;;;;;;;26.90;12.37;;;;;;;;;;5082639;28;20474;-80
2023/06/08 04:51:09;;;;;;;18.30;11.80;;;;;;;;;;5078931;28;21094;-81
2023/06/08 04:53:35;;;;;;;17.57;11.53;;;;;;;;;;5086201;28;20789;-82
2023/06/08 04:56:02;;;;;;;25.40;10.70;;;;;;;;;;5069802;28;20476;-80
2023/06/08 04:58:29;;;;;;;16.23;10.17;;;;;;;;;;5078065;28;20475;-80
2023/06/08 05:00:55;;;;;;;25.47;10.50;;;;;;;;;;5079010;28;20466;-79
2023/06/08 05:03:22;;;;;;;26.60;11.67;;;;;;;;;;5076726;28;20449;-78
2023/06/08 05:05:49;;;;;;;18.67;11.83;;;;;;;;;;5082288;28;20481;-78
2023/06/08 05:08:16;;;;;;;24.03;11.23;;;;;;;;;;5075058;28;20765;-78
2023/06/08 05:10:43;;;;;;;27.20;11.40;;;;;;;;;;5082327;28;20477;-78
2023/06/08 05:13:09;;;;;;;18.70;11.53;;;;;;;;;;5088628;28;20458;-81
2023/06/08 05:15:36;;;;;;;20.80;10.90;;;;;;;;;;5079718;28;20467;-78
2023/06/08 05:18:03;;;;;;;18.40;10.87;;;;;;;;;;5076040;28;20470;-79
2023/06/08 05:20:29;;;;;;;23.63;10.60;;;;;;;;;;5076911;28;20550;-79
2023/06/08 05:22:56;;;;;;;17.83;9.57;;;;;;;;;;5075257;28;20447;-78
2023/06/08 05:25:26;;;;;;;13.93;9.70;;;;;;;;;;5071770;28;20479;-80
2023/06/08 05:27:52;;;;;;;15.60;9.97;;;;;;;;;;5076240;28;20533;-80
2023/06/08 05:30:18;;;;;;;22.10;11.43;;;;;;;;;;5084274;28;20470;-80
2023/06/08 05:32:45;;;;;;;23.67;10.97;;;;;;;;;;5074935;28;20453;-80
2023/06/08 05:35:11;;;;;;;13.17;9.70;;;;;;;;;;5079447;28;20466;-80
2023/06/08 05:37:37;;;;;;;24.17;11.00;;;;;;;;;;5073822;28;20470;-80
2023/06/08 05:40:05;;;;;;;20.47;10.97;;;;;;;;;;5079593;28;20478;-80
2023/06/08 05:42:33;;;;;;;24.03;12.73;;;;;;;;;;5070470;28;20537;-80
2023/06/08 05:44:59;;;;;;;18.17;11.77;;;;;;;;;;5080041;28;20470;-78
2023/06/08 05:47:25;;;;;;;21.47;12.10;;;;;;;;;;5084362;28;20470;-78
2023/06/08 05:49:52;;;;;;;21.13;11.23;;;;;;;;;;5081156;28;20470;-78
2023/06/08 05:52:18;;;;;;;19.40;11.13;;;;;;;;;;5074058;28;20462;-78
2023/06/08 05:54:44;;;;;;;19.53;11.57;;;;;;;;;;5080858;28;20474;-78
2023/06/08 05:57:11;;;;;;;26.20;11.73;;;;;;;;;;5074306;28;20509;-78
2023/06/08 05:59:38;;;;;;;21.93;10.37;;;;;;;;;;5077425;28;20473;-78
2023/06/08 06:02:05;;;;;;;16.87;10.10;;;;;;;;;;5078550;28;20474;-78
2023/06/08 06:04:31;;;;;;;20.07;10.80;;;;;;;;;;5077171;28;20474;-80
2023/06/08 06:06:58;;;;;;;22.47;11.97;;;;;;;;;;5072188;28;20451;-78
2023/06/08 06:09:24;;;;;;;28.37;10.83;;;;;;;;;;5077994;28;20474;-77
2023/06/08 06:11:50;;;;;;;20.00;11.10;;;;;;;;;;5075620;28;20451;-80
2023/06/08 06:14:17;;;;;;;18.17;10.60;;;;;;;;;;5067982;28;20471;-78
2023/06/08 06:16:45;;;;;;;20.60;11.30;;;;;;;;;;5080234;28;20440;-78
2023/06/08 06:19:12;;;;;;;17.97;9.93;;;;;;;;;;5075129;28;20467;-80
2023/06/08 06:21:38;;;;;;;16.00;10.67;;;;;;;;;;5078539;28;20503;-77
2023/06/08 06:24:05;;;;;;;20.17;11.00;;;;;;;;;;5081940;28;20454;-78
2023/06/08 06:26:31;;;;;;;22.20;10.30;;;;;;;;;;5071219;28;20500;-81
2023/06/08 06:28:58;;;;;;;20.03;10.03;;;;;;;;;;5078768;28;20528;-78
2023/06/08 06:31:24;;;;;;;15.33;10.70;;;;;;;;;;5082974;28;20457;-78
2023/06/08 06:33:52;;;;;;;21.93;11.57;;;;;;;;;;5074320;28;20457;-80
2023/06/08 06:36:19;;;;;;;17.77;11.93;;;;;;;;;;5077257;28;20467;-80
2023/06/08 06:38:45;;;;;;;18.43;9.20;;;;;;;;;;5077392;28;20474;-80
2023/06/08 06:41:12;;;;;;;17.93;10.23;;;;;;;;;;5080278;28;20530;-80
2023/06/08 06:43:38;;;;;;;12.50;7.90;;;;;;;;;;5083559;28;20937;-79
2023/06/08 06:46:04;;;;;;;16.83;10.20;;;;;;;;;;5081385;28;20462;-80
2023/06/08 06:48:31;;;;;;;23.87;10.80;;;;;;;;;;5084259;28;20470;-80
2023/06/08 06:50:59;;;;;;;14.83;8.47;;;;;;;;;;5080422;28;20473;-80
2023/06/08 06:53:25;;;;;;;11.57;8.33;;;;;;;;;;5071773;28;20944;-79
2023/06/08 06:55:51;;;;;;;22.30;9.47;;;;;;;;;;5083659;28;20452;-80
2023/06/08 06:58:19;;;;;;;13.50;10.10;;;;;;;;;;5074641;28;20485;-77
2023/06/08 07:00:45;;;;;;;11.53;8.67;;;;;;;;;;5073097;28;20474;-80
2023/06/08 07:03:13;;;;;;;22.00;10.17;;;;;;;;;;5073553;28;20471;-80
2023/06/08 07:05:39;;;;;;;14.13;9.37;;;;;;;;;;5073521;28;20499;-78
2023/06/08 07:08:07;;;;;;;14.30;10.00;;;;;;;;;;5077361;28;20926;-80
2023/06/08 07:10:33;;;;;;;17.43;10.87;;;;;;;;;;5077642;28;20471;-80
2023/06/08 07:13:00;;;;;;;15.47;10.27;;;;;;;;;;5076267;28;20809;-80
2023/06/08 07:15:27;;;;;;;16.43;8.73;;;;;;;;;;5084225;28;20815;-79
2023/06/08 07:17:53;;;;;;;24.40;9.90;;;;;;;;;;5085314;28;20474;-80
2023/06/08 07:20:19;;;;;;;18.80;8.90;;;;;;;;;;5082489;28;20470;-79
2023/06/08 07:22:46;;;;;;;20.27;9.10;;;;;;;;;;5083292;28;20449;-79
2023/06/08 07:25:14;;;;;;;10.87;8.30;;;;;;;;;;5085291;28;20482;-80
2023/06/08 07:27:44;;;;;;;22.50;8.67;;;;;;;;;;5082474;28;20479;-79
2023/06/08 07:30:12;;;;;;;12.77;8.13;;;;;;;;;;5061334;28;20450;-79
2023/06/08 07:32:38;;;;;;;10.53;7.30;;;;;;;;;;5073997;28;20424;-79
2023/06/08 07:35:06;;;;;;;17.50;8.10;;;;;;;;;;5082148;28;20466;-81
2023/06/08 07:37:32;;;;;;;21.03;8.03;;;;;;;;;;5075807;28;20441;-80
2023/06/08 07:39:58;;;;;;;19.47;8.80;;;;;;;;;;5077156;28;20441;-80
2023/06/08 07:42:26;;;;;;;11.07;7.37;;;;;;;;;;5075219;28;20461;-80
2023/06/08 07:44:54;;;;;;;17.20;9.17;;;;;;;;;;5075732;28;20458;-79
2023/06/08 07:47:20;;;;;;;12.50;7.03;;;;;;;;;;5085047;28;20505;-79
2023/06/08 07:49:46;;;;;;;14.17;7.80;;;;;;;;;;5065039;28;20999;-79
2023/06/08 07:52:14;;;;;;;18.53;8.40;;;;;;;;;;5080564;28;20449;-79
2023/06/08 07:54:42;;;;;;;14.10;7.37;;;;;;;;;;5078913;28;20431;-79
2023/06/08 07:57:08;;;;;;;11.00;8.07;;;;;;;;;;5080799;28;20987;-79
2023/06/08 07:59:37;;;;;;;18.80;7.93;;;;;;;;;;5078970;28;20444;-79
2023/06/08 08:02:05;;;;;;;14.47;8.20;;;;;;;;;;5074990;28;20847;-79
2023/06/08 08:04:32;;;;;;;18.47;8.53;;;;;;;;;;5069682;28;20831;-79
2023/06/08 08:06:58;;;;;;;15.13;7.50;;;;;;;;;;5067098;28;20455;-79
2023/06/08 08:09:24;;;;;;;14.80;7.37;;;;;;;;;;5074753;28;20457;-79
2023/06/08 08:11:51;;;;;;;18.93;8.40;;;;;;;;;;5074849;28;20454;-79
2023/06/08 08:14:17;;;;;;;15.50;8.83;;;;;;;;;;5074415;28;20462;-81
2023/06/08 08:16:45;;;;;;;10.87;7.53;;;;;;;;;;5057908;28;20448;-79
2023/06/08 08:19:11;;;;;;;13.30;7.03;;;;;;;;;;5072572;28;20454;-79
2023/06/08 08:21:37;;;;;;;11.10;6.70;;;;;;;;;;5071838;28;20459;-80
2023/06/08 08:24:05;;;;;;;12.83;5.93;;;;;;;;;;5074624;28;20454;-80
2023/06/08 08:26:31;;;;;;;14.97;6.37;;;;;;;;;;5074366;28;20549;-79
2023/06/08 08:28:58;;;;;;;16.47;7.13;;;;;;;;;;5072844;28;20847;-79
2023/06/08 08:31:24;;;;;;;9.57;6.63;;;;;;;;;;5071654;28;20472;-79
2023/06/08 08:33:52;;;;;;;11.93;6.20;;;;;;;;;;5076729;28;20449;-79
2023/06/08 08:36:19;;;;;;;12.10;6.67;;;;;;;;;;5083249;28;20554;-78
2023/06/08 08:38:45;;;;;;;8.30;7.03;;;;;;;;;;5077922;28;20844;-78
2023/06/08 08:41:12;;;;;;;15.17;8.13;;;;;;;;;;5073141;28;20469;-79
2023/06/08 08:43:44;;;;;;;13.97;6.37;;;;;;;;;;5081482;28;20478;-78
2023/06/08 08:46:11;;;;;;;11.93;6.60;;;;;;;;;;5075176;28;20463;-79
2023/06/08 08:48:42;;;;;;;10.43;6.37;;;;;;;;;;5075919;28;20984;-79
2023/06/08 08:51:13;;;;;;;10.87;5.90;;;;;;;;;;5080560;28;20467;-79
2023/06/08 08:53:40;;;;;;;14.60;6.10;;;;;;;;;;5075564;28;20510;-78
2023/06/08 08:56:07;;;;;;;14.47;7.13;;;;;;;;;;5077821;28;20544;-79
2023/06/08 08:58:34;;;;;;;10.97;6.47;;;;;;;;;;5072861;28;20466;-79
2023/06/08 09:01:03;;;;;;;8.43;6.10;;;;;;;;;;5055512;28;20463;-79
2023/06/08 09:03:29;;;;;;;15.73;6.83;;;;;;;;;;5083278;28;20844;-79
2023/06/08 09:05:57;;;;;;;12.67;6.87;;;;;;;;;;5079584;28;20462;-79
2023/06/08 09:08:25;;;;;;;12.70;6.80;;;;;;;;;;5075223;28;21006;-79
2023/06/08 09:11:00;;;;;;;9.20;6.40;;;;;;;;;;5080952;28;20453;-79
2023/06/08 09:13:27;;;;;;;9.80;6.23;;;;;;;;;;5079299;28;20450;-79
2023/06/08 09:15:53;;;;;;;13.03;6.77;;;;;;;;;;5078728;28;20940;-78
2023/06/08 09:18:19;;;;;;;13.23;5.90;;;;;;;;;;5081614;28;20478;-78
2023/06/08 09:20:46;;;;;;;8.13;6.30;;;;;;;;;;5087453;28;20458;-79
2023/06/08 09:23:16;;;;;;;13.83;7.37;;;;;;;;;;5085454;28;20496;-78
2023/06/08 09:25:47;;;;;;;13.47;7.03;;;;;;;;;;5064924;28;20458;-79
2023/06/08 09:28:17;;;;;;;9.10;6.77;;;;;;;;;;5073717;28;20486;-78
2023/06/08 09:30:44;;;;;;;10.83;6.10;;;;;;;;;;5079353;28;20466;-78
2023/06/08 09:33:20;;;;;;;15.80;7.33;;;;;;;;;;5082020;28;20446;-78
2023/06/08 09:35:46;;;;;;;16.70;7.10;;;;;;;;;;5081874;28;20455;-79
2023/06/08 09:38:18;;;;;;;14.50;6.57;;;;;;;;;;5077813;28;20471;-79
2023/06/08 09:40:46;;;;;;;17.63;7.30;;;;;;;;;;5081239;28;20447;-79
2023/06/08 09:43:12;;;;;;;10.27;6.73;;;;;;;;;;5071622;28;20485;-78
2023/06/08 09:45:43;;;;;;;16.23;7.53;;;;;;;;;;5076847;28;20438;-79
2023/06/08 09:48:10;;;;;;;12.90;7.07;;;;;;;;;;5081402;28;20466;-79
2023/06/08 09:50:37;;;;;;;11.83;7.17;;;;;;;;;;5082306;28;20474;-79
2023/06/08 09:53:06;;;;;;;15.23;7.77;;;;;;;;;;5077696;28;20470;-79
2023/06/08 09:55:33;;;;;;;13.63;7.50;;;;;;;;;;5076234;28;20455;-79
2023/06/08 09:58:01;;;;;;;25.60;10.27;;;;;;;;;;5065199;28;20459;-78
2023/06/08 10:00:29;;;;;;;12.80;6.80;;;;;;;;;;5079243;28;20467;-79
2023/06/08 10:03:02;;;;;;;16.67;7.43;;;;;;;;;;5077377;28;20474;-78
2023/06/08 10:05:30;;;;;;;13.27;6.80;;;;;;;;;;5069841;28;20450;-78
2023/06/08 10:07:59;;;;;;;11.03;6.50;;;;;;;;;;5074640;28;20494;-79
2023/06/08 10:10:27;;;;;;;12.83;6.80;;;;;;;;;;5075984;28;20465;-78
2023/06/08 10:12:54;;;;;;;13.20;7.00;;;;;;;;;;5071823;28;20864;-78
2023/06/08 10:15:22;;;;;;;17.13;7.63;;;;;;;;;;5072280;28;20474;-79
2023/06/08 10:17:49;;;;;;;12.47;7.73;;;;;;;;;;5083202;28;20470;-79
2023/06/08 10:20:16;;;;;;;14.00;6.27;;;;;;;;;;5083229;28;20460;-79
2023/06/08 10:22:42;;;;;;;11.83;6.90;;;;;;;;;;5087282;28;20524;-79
2023/06/08 10:25:11;;;;;;;18.83;7.90;;;;;;;;;;5089599;28;20449;-79
2023/06/08 10:27:37;;;;;;;11.53;6.83;;;;;;;;;;5069779;28;21041;-79
2023/06/08 10:30:05;;;;;;;17.20;7.90;;;;;;;;;;5074063;28;20937;-78
2023/06/08 10:32:34;;;;;;;15.30;7.40;;;;;;;;;;5071996;28;20469;-79
2023/06/08 10:35:04;;;;;;;14.87;7.80;;;;;;;;;;5073157;28;20451;-79
2023/06/08 10:37:31;;;;;;;14.30;7.30;;;;;;;;;;5075794;28;20474;-78
2023/06/08 10:39:58;;;;;;;16.10;7.63;;;;;;;;;;5084900;28;20457;-79
2023/06/08 10:42:24;;;;;;;10.07;7.40;;;;;;;;;;5082953;28;20473;-78
2023/06/08 10:44:53;;;;;;;8.93;6.53;;;;;;;;;;5083715;28;20529;-79
2023/06/08 10:47:20;;;;;;;16.53;7.40;;;;;;;;;;5078535;28;20479;-79
2023/06/08 10:49:57;;;;;;;13.37;6.93;;;;;;;;;;5079085;28;20473;-79
2023/06/08 10:52:24;;;;;;;15.43;6.47;;;;;;;;;;5073599;28;20467;-79
2023/06/08 10:54:52;;;;;;;15.80;7.13;;;;;;;;;;5080389;28;20466;-80
2023/06/08 10:57:35;;;;;;;14.13;5.70;;;;;;;;;;5072838;28;20474;-79
2023/06/08 11:00:01;;;;;;;10.60;6.53;;;;;;;;;;5084806;28;20435;-80
2023/06/08 11:02:29;;;;;;;12.57;7.93;;;;;;;;;;5079980;28;20470;-79
2023/06/08 11:04:58;;;;;;;12.03;6.57;;;;;;;;;;5082701;28;20450;-79
2023/06/08 11:07:25;;;;;;;11.70;6.73;;;;;;;;;;5075345;28;20474;-79
2023/06/08 11:09:52;;;;;;;12.80;6.47;;;;;;;;;;5078527;28;20458;-80
2023/06/08 11:12:20;;;;;;;8.00;5.70;;;;;;;;;;5083981;28;20474;-80
2023/06/08 11:14:47;;;;;;;9.13;6.90;;;;;;;;;;5078289;28;20512;-81
2023/06/08 11:17:13;;;;;;;13.97;6.00;;;;;;;;;;5071614;28;20485;-80
2023/06/08 11:19:41;;;;;;;13.47;6.87;;;;;;;;;;5083308;28;20458;-79
2023/06/08 11:22:09;;;;;;;13.10;6.30;;;;;;;;;;5080560;28;20477;-80
2023/06/08 11:24:35;;;;;;;17.10;7.27;;;;;;;;;;5086511;28;20478;-79
2023/06/08 11:27:02;;;;;;;14.90;7.40;;;;;;;;;;5081634;28;20467;-80
2023/06/08 11:29:30;;;;;;;10.67;6.80;;;;;;;;;;5084407;28;20458;-79
2023/06/08 11:32:09;;;;;;;11.40;6.40;;;;;;;;;;5078853;28;20550;-79
2023/06/08 11:34:37;;;;;;;17.53;7.10;;;;;;;;;;5075735;28;20443;-79
2023/06/08 11:37:04;;;;;;;9.93;6.63;;;;;;;;;;5082899;28;20501;-80
2023/06/08 11:39:33;;;;;;;10.60;5.93;;;;;;;;;;5085110;28;20529;-80
2023/06/08 11:41:59;;;;;;;11.90;7.07;;;;;;;;;;5074260;28;20474;-79
2023/06/08 11:44:26;;;;;;;12.20;6.67;;;;;;;;;;5078387;28;20509;-80
2023/06/08 11:46:53;;;;;;;11.40;6.00;;;;;;;;;;5077829;28;20845;-80
2023/06/08 11:49:21;;;;;;;12.13;5.57;;;;;;;;;;5090070;28;20821;-81
2023/06/08 11:51:48;;;;;;;10.60;7.10;;;;;;;;;;5075486;28;20479;-80
2023/06/08 11:54:15;;;;;;;10.70;6.33;;;;;;;;;;5080318;28;20438;-81
2023/06/08 11:56:46;;;;;;;9.70;7.00;;;;;;;;;;5081692;28;20493;-80
2023/06/08 11:59:13;;;;;;;9.67;6.23;;;;;;;;;;5078133;28;20504;-80
2023/06/08 12:01:54;;;;;;;12.33;7.10;;;;;;;;;;5084962;28;20512;-80
2023/06/08 12:04:20;;;;;;;15.23;6.77;;;;;;;;;;5082138;28;20474;-80
2023/06/08 12:06:47;;;;;;;11.73;7.07;;;;;;;;;;5073610;28;20471;-81
2023/06/08 12:09:13;;;;;;;11.37;6.03;;;;;;;;;;5076528;28;20522;-80
2023/06/08 12:11:40;;;;;;;8.40;6.50;;;;;;;;;;5078814;28;20860;-81
2023/06/08 12:14:07;;;;;;;13.73;7.07;;;;;;;;;;5081676;28;20448;-81
2023/06/08 12:16:42;;;;;;;15.90;7.23;;;;;;;;;;5086230;28;20837;-80
2023/06/08 12:19:08;;;;;;;12.10;7.20;;;;;;;;;;5080980;28;20443;-80
2023/06/08 12:21:40;;;;;;;12.43;6.20;;;;;;;;;;5075951;28;20846;-80
2023/06/08 12:24:07;;;;;;;11.33;7.07;;;;;;;;;;5084720;28;20462;-80
2023/06/08 12:26:33;;;;;;;10.73;7.17;;;;;;;;;;5088729;28;20478;-80
2023/06/08 12:29:04;;;;;;;13.37;7.73;;;;;;;;;;5076731;28;20474;-80
2023/06/08 12:31:32;;;;;;;11.00;6.60;;;;;;;;;;5083173;28;20475;-79
2023/06/08 12:33:58;;;;;;;12.03;6.93;;;;;;;;;;5081272;28;20438;-80
2023/06/08 12:36:25;;;;;;;17.03;6.83;;;;;;;;;;5085194;28;20557;-80
2023/06/08 12:38:51;;;;;;;15.17;6.47;;;;;;;;;;5076534;28;20913;-81
2023/06/08 12:41:18;;;;;;;12.80;6.60;;;;;;;;;;5089260;28;20463;-81
2023/06/08 12:43:47;;;;;;;17.30;6.77;;;;;;;;;;5081411;28;21082;-81
2023/06/08 12:46:18;;;;;;;9.20;6.57;;;;;;;;;;5087631;28;20463;-81
2023/06/08 12:48:47;;;;;;;11.87;7.17;;;;;;;;;;5085597;28;20505;-81
2023/06/08 12:51:13;;;;;;;6.70;5.23;;;;;;;;;;5081406;28;20463;-80
2023/06/08 12:53:40;;;;;;;10.00;7.17;;;;;;;;;;5081136;28;20439;-80
2023/06/08 12:56:06;;;;;;;12.67;6.23;;;;;;;;;;5072182;28;20474;-81
2023/06/08 12:58:33;;;;;;;8.33;5.53;;;;;;;;;;5081465;28;20470;-80
2023/06/08 13:01:00;;;;;;;10.63;6.13;;;;;;;;;;5079337;28;20485;-81
2023/06/08 13:03:26;;;;;;;9.93;5.63;;;;;;;;;;5079541;28;20556;-80
2023/06/08 13:05:54;;;;;;;16.23;6.60;;;;;;;;;;5074103;28;20964;-81
2023/06/08 13:08:20;;;;;;;11.83;6.83;;;;;;;;;;5072153;28;20487;-80
2023/06/08 13:10:46;;;;;;;10.80;6.30;;;;;;;;;;5072828;28;20450;-81
2023/06/08 13:13:13;;;;;;;8.87;5.93;;;;;;;;;;5088593;28;20438;-81
2023/06/08 13:15:39;;;;;;;8.57;5.80;;;;;;;;;;5085937;28;20782;-81
2023/06/08 13:18:06;;;;;;;14.40;6.03;;;;;;;;;;5080725;28;20469;-81
2023/06/08 13:20:32;;;;;;;10.40;6.60;;;;;;;;;;5083830;28;20465;-81
2023/06/08 13:23:00;;;;;;;10.50;6.23;;;;;;;;;;5082944;28;20457;-81
2023/06/08 13:25:27;;;;;;;11.10;6.20;;;;;;;;;;5074355;28;20482;-80
2023/06/08 13:27:53;;;;;;;14.63;6.50;;;;;;;;;;5078790;28;20577;-80
2023/06/08 13:30:21;;;;;;;10.83;5.97;;;;;;;;;;5072863;28;20886;-80
2023/06/08 13:32:47;;;;;;;12.10;6.07;;;;;;;;;;5078130;28;20561;-80
2023/06/08 13:35:14;;;;;;;12.87;6.90;;;;;;;;;;5080234;28;20442;-81
2023/06/08 13:37:41;;;;;;;11.53;6.83;;;;;;;;;;5085005;28;20475;-81
2023/06/08 13:40:11;;;;;;;9.23;6.37;;;;;;;;;;5086910;28;20446;-81
2023/06/08 13:42:39;;;;;;;9.50;6.23;;;;;;;;;;5075233;28;20470;-81
2023/06/08 13:45:10;;;;;;;15.83;6.77;;;;;;;;;;5083116;28;21220;-81
2023/06/08 13:47:37;;;;;;;11.40;5.93;;;;;;;;;;5072392;28;20475;-80
2023/06/08 13:50:04;;;;;;;11.23;5.80;;;;;;;;;;5080394;28;20835;-81
2023/06/08 13:52:30;;;;;;;9.40;6.17;;;;;;;;;;5073861;28;20463;-81
2023/06/08 13:54:56;;;;;;;11.60;6.70;;;;;;;;;;5082161;28;20493;-80
2023/06/08 13:57:24;;;;;;;13.53;6.47;;;;;;;;;;5084384;28;20897;-80
2023/06/08 13:59:51;;;;;;;8.80;5.97;;;;;;;;;;5076095;28;20463;-80
2023/06/08 14:02:17;;;;;;;10.67;6.27;;;;;;;;;;5086940;28;20470;-81
2023/06/08 14:04:43;;;;;;;15.50;6.60;;;;;;;;;;5075669;28;20493;-80
2023/06/08 14:07:10;;;;;;;9.37;6.40;;;;;;;;;;5088244;28;20474;-80
2023/06/08 14:09:36;;;;;;;11.37;5.70;;;;;;;;;;5080529;28;20517;-80
2023/06/08 14:12:03;;;;;;;11.40;6.43;;;;;;;;;;5072140;28;20478;-81
2023/06/08 14:14:31;;;;;;;19.93;5.90;;;;;;;;;;5081374;28;20508;-80
2023/06/08 14:16:57;;;;;;;11.33;5.33;;;;;;;;;;5075143;28;20475;-80
2023/06/08 14:19:23;;;;;;;9.80;5.90;;;;;;;;;;5083984;28;20449;-80
2023/06/08 14:21:50;;;;;;;11.00;5.13;;;;;;;;;;5081331;28;20473;-81
2023/06/08 14:24:16;;;;;;;9.60;4.93;;;;;;;;;;5089495;28;20488;-80
2023/06/08 14:26:43;;;;;;;8.87;5.10;;;;;;;;;;5082720;28;20895;-81